Etusivu
METAR-TAF:

METAR-TAF

Lentoasemat :

Iowa County Airport

Mineral Point, Wisconsin, Yhdysvallat

Leveyspiiri: 42-53-07N, Pituuspiiri: 090-13-55W, korkeus merenpinnasta: 359 m

Tämänhetkinen sää

Tämä raportti tehtiin 19 minuuttia sitten, kello 16.55 UTC
Tuuli 3 kn etelästä
Lämpötila 26°C
Kosteus 61%
Ilmanpaine 1012 hPa
Näkyvyys: 16.1 km
selkeää

METAR: KMRJ 031655Z AUTO 18003KT 10SM CLR 26/18 A2989 RMK AO2

Aika: 12:14 (17:14 UTC)


TAF: puuttuu

Säähavainnot ja -ennusteet yli 4000 lentoasemalta (METAR- ja TAF-raportit).

Käytössä olevat sääasemat on merkitty karttaan keltaisilla ja punaisilla pisteillä.

Aseta hiiri pisteen päälle nähdäksesi sääaseman nimen.

Klikkaa sitten nähdäksesi säähavainnot ja -ennusteet.

Kartan vaihtaminen: klikkaa mustalla rastilla varustettuja vihreitä pisteitä, niin voit zoomata sisään; viivalla varustettua vihreää pistettä, niin voit zoomata ulos tai vihreitä nuolia, niin pääset viereisille kartoille.


METAR-TAF: